Time;durP1;ratioP1;P1;durP2;ratioP2;P2;SDS_P1;SDS_P2;PMS_P1;PMS_P2;Temp;Humidity;BMP_temperature;BMP_pressure;BME280_temperature;BME280_humidity;BME280_pressure;Samples;Min_cycle;Max_cycle;Signal;HPM_P1;HPM_P2
2023/08/28 00:02:00;;;;;;;;;;;;;;;;;;2217886;58;2590;-26
2023/08/28 00:04:30;;;;;;;;;;;;;;;;;;2217953;66;1727;-26
2023/08/28 00:07:00;;;;;;;;;;;;;;;;;;2217707;66;2110;-26
2023/08/28 00:09:30;;;;;;;;;;;;;;;;;;2219015;66;2075;-26
2023/08/28 00:12:01;;;;;;;;;;;;;;;;;;2218369;58;2158;-27
2023/08/28 00:14:31;;;;;;;;;;;;;;;;;;2214634;66;2471;-26
2023/08/28 00:17:04;;;;;;;;;;;;;;;;;;2218217;66;1800;-26
2023/08/28 00:19:35;;;;;;;;;;;;;;;;;;2218700;66;1861;-27
2023/08/28 00:22:05;;;;;;;;;;;;;;;;;;2214254;66;1973;-26
2023/08/28 00:24:35;;;;;;;;;;;;;;;;;;2217862;66;2258;-26
2023/08/28 00:27:06;;;;;;;;;;;;;;;;;;2217687;66;2839;-26
2023/08/28 00:29:36;;;;;;;;;;;;;;;;;;2218288;59;1935;-26
2023/08/28 00:32:06;;;;;;;;;;;;;;;;;;2220781;58;1994;-26
2023/08/28 00:34:36;;;;;;;;;;;;;;;;;;2218814;66;2715;-26
2023/08/28 00:37:09;;;;;;;;;;;;;;;;;;2217703;58;1951;-26
2023/08/28 00:39:40;;;;;;;;;;;;;;;;;;2217935;59;2050;-26
2023/08/28 00:42:10;;;;;;;;;;;;;;;;;;2217501;66;2739;-26
2023/08/28 00:44:40;;;;;;;;;;;;;;;;;;2218307;58;1938;-26
2023/08/28 00:47:10;;;;;;;;;;;;;;;;;;2215385;58;2528;-27
2023/08/28 00:49:41;;;;;;;;;;;;;;;;;;2218062;66;1945;-26
2023/08/28 00:52:12;;;;;;;;;;;;;;;;;;2218204;58;1838;-27
2023/08/28 00:54:42;;;;;;;;;;;;;;;;;;2218496;66;1779;-27
2023/08/28 00:57:14;;;;;;;;;;;;;;;;;;2218237;58;1981;-26
2023/08/28 00:59:44;;;;;;;;;;;;;;;;;;2218240;58;2436;-26
2023/08/28 01:02:15;;;;;;;;;;;;;;;;;;2217669;59;2472;-27
2023/08/28 01:04:45;;;;;;;;;;;;;;;;;;2218378;59;1484;-27
2023/08/28 01:07:23;;;;;;;;;;;;;;;;;;2214458;66;2892;-27
2023/08/28 01:09:53;;;;;;;;;;;;;;;;;;2218134;66;2189;-26
2023/08/28 01:12:26;;;;;;;;;;;;;;;;;;2217900;58;2116;-27
2023/08/28 01:15:11;;;;;;;;;;;;;;;;;;2215269;59;1964;-26
2023/08/28 01:17:42;;;;;;;;;;;;;;;;;;2217759;66;1750;-26
2023/08/28 01:20:15;;;;;;;;;;;;;;;;;;2217665;66;1995;-26
2023/08/28 01:22:45;;;;;;;;;;;;;;;;;;2218204;66;1683;-27
2023/08/28 01:25:16;;;;;;;;;;;;;;;;;;2216897;59;2193;-26
2023/08/28 01:27:47;;;;;;;;;;;;;;;;;;2218348;58;2530;-27
2023/08/28 01:30:17;;;;;;;;;;;;;;;;;;2213315;66;1940;-26
2023/08/28 01:32:47;;;;;;;;;;;;;;;;;;2218125;58;2401;-27
2023/08/28 01:35:28;;;;;;;;;;;;;;;;;;2217271;66;1535;-27
2023/08/28 01:38:04;;;;;;;;;;;;;;;;;;2218089;58;1872;-27
2023/08/28 01:40:40;;;;;;;;;;;;;;;;;;2218036;66;1793;-27
2023/08/28 01:43:18;;;;;;;;;;;;;;;;;;2214004;66;2124;-27
2023/08/28 01:45:49;;;;;;;;;;;;;;;;;;2215754;58;2432;-27
2023/08/28 01:48:20;;;;;;;;;;;;;;;;;;2217782;58;1690;-27
2023/08/28 01:50:50;;;;;;;;;;;;;;;;;;2214042;58;2002;-27
2023/08/28 01:53:23;;;;;;;;;;;;;;;;;;2217529;58;2006;-26
2023/08/28 01:56:09;;;;;;;;;;;;;;;;;;2218130;58;2035;-27
2023/08/28 01:58:41;;;;;;;;;;;;;;;;;;2215531;66;1828;-27
2023/08/28 02:01:11;;;;;;;;;;;;;;;;;;2218011;58;1793;-27
2023/08/28 02:03:42;;;;;;;;;;;;;;;;;;2218952;66;1742;-28
2023/08/28 02:06:12;;;;;;;;;;;;;;;;;;2217919;66;1628;-27
2023/08/28 02:08:42;;;;;;;;;;;;;;;;;;2215653;66;2452;-27
2023/08/28 02:11:13;;;;;;;;;;;;;;;;;;2218790;58;1935;-27
2023/08/28 02:13:43;;;;;;;;;;;;;;;;;;2218774;59;1899;-27
2023/08/28 02:16:13;;;;;;;;;;;;;;;;;;2218448;66;1840;-27
2023/08/28 02:18:43;;;;;;;;;;;;;;;;;;2218437;66;1759;-27
2023/08/28 02:21:14;;;;;;;;;;;;;;;;;;2217931;66;2251;-27
2023/08/28 02:23:47;;;;;;;;;;;;;;;;;;2218391;66;1789;-27
2023/08/28 02:26:17;;;;;;;;;;;;;;;;;;2217385;58;2522;-26
2023/08/28 02:28:53;;;;;;;;;;;;;;;;;;2214531;59;2582;-27
2023/08/28 02:31:23;;;;;;;;;;;;;;;;;;2215081;58;2458;-27
2023/08/28 02:33:54;;;;;;;;;;;;;;;;;;2218375;58;2071;-27
2023/08/28 02:36:24;;;;;;;;;;;;;;;;;;2215050;66;2522;-27
2023/08/28 02:38:54;;;;;;;;;;;;;;;;;;2214736;59;2816;-27
2023/08/28 02:41:24;;;;;;;;;;;;;;;;;;2214515;66;2569;-27
2023/08/28 02:43:58;;;;;;;;;;;;;;;;;;2214865;66;1850;-27
2023/08/28 02:46:28;;;;;;;;;;;;;;;;;;2215524;58;1942;-27
2023/08/28 02:48:58;;;;;;;;;;;;;;;;;;2221255;66;1815;-27
2023/08/28 02:51:28;;;;;;;;;;;;;;;;;;2218684;58;2520;-27
2023/08/28 02:53:58;;;;;;;;;;;;;;;;;;2218109;58;1739;-27
2023/08/28 02:56:34;;;;;;;;;;;;;;;;;;2218497;58;1909;-27
2023/08/28 02:59:04;;;;;;;;;;;;;;;;;;2214764;66;1906;-27
2023/08/28 03:01:34;;;;;;;;;;;;;;;;;;2219201;58;1798;-27
2023/08/28 03:04:05;;;;;;;;;;;;;;;;;;2218098;59;2739;-27
2023/08/28 03:06:36;;;;;;;;;;;;;;;;;;2218121;66;1504;-27
2023/08/28 03:09:07;;;;;;;;;;;;;;;;;;2217987;66;2629;-27
2023/08/28 03:11:38;;;;;;;;;;;;;;;;;;2218331;58;1458;-27
2023/08/28 03:14:11;;;;;;;;;;;;;;;;;;2218080;66;1772;-27
2023/08/28 03:16:41;;;;;;;;;;;;;;;;;;2217879;66;1741;-27
2023/08/28 03:19:11;;;;;;;;;;;;;;;;;;2218037;66;1753;-27
2023/08/28 03:21:41;;;;;;;;;;;;;;;;;;2218402;66;1841;-27
2023/08/28 03:24:12;;;;;;;;;;;;;;;;;;2218405;66;2394;-27
2023/08/28 03:26:42;;;;;;;;;;;;;;;;;;2218456;58;2624;-27
2023/08/28 03:29:12;;;;;;;;;;;;;;;;;;2217276;58;2830;-27
2023/08/28 03:31:42;;;;;;;;;;;;;;;;;;2218204;66;2184;-27
2023/08/28 03:34:12;;;;;;;;;;;;;;;;;;2218151;66;1809;-27
2023/08/28 03:36:43;;;;;;;;;;;;;;;;;;2218880;66;1632;-26
2023/08/28 03:39:13;;;;;;;;;;;;;;;;;;2217990;58;1988;-27
2023/08/28 03:41:43;;;;;;;;;;;;;;;;;;2218192;66;1211;-27
2023/08/28 03:44:13;;;;;;;;;;;;;;;;;;2218252;66;1224;-26
2023/08/28 03:46:43;;;;;;;;;;;;;;;;;;2215777;58;1698;-27
2023/08/28 03:49:14;;;;;;;;;;;;;;;;;;2218184;58;1934;-27
2023/08/28 03:51:44;;;;;;;;;;;;;;;;;;2218325;58;1685;-27
2023/08/28 03:54:14;;;;;;;;;;;;;;;;;;2217536;58;1524;-26
2023/08/28 03:56:45;;;;;;;;;;;;;;;;;;2217923;66;1862;-27
2023/08/28 03:59:15;;;;;;;;;;;;;;;;;;2217625;66;1684;-27
2023/08/28 04:01:45;;;;;;;;;;;;;;;;;;2218680;58;1669;-27
2023/08/28 04:04:16;;;;;;;;;;;;;;;;;;2217809;66;1685;-27
2023/08/28 04:06:48;;;;;;;;;;;;;;;;;;2218894;66;1729;-27
2023/08/28 04:09:18;;;;;;;;;;;;;;;;;;2217901;66;1937;-27
2023/08/28 04:11:48;;;;;;;;;;;;;;;;;;2218746;58;1722;-26
2023/08/28 04:14:18;;;;;;;;;;;;;;;;;;2218782;66;2280;-27
2023/08/28 04:16:53;;;;;;;;;;;;;;;;;;2219307;66;1345;-26
2023/08/28 04:19:26;;;;;;;;;;;;;;;;;;2214993;66;1641;-27
2023/08/28 04:21:57;;;;;;;;;;;;;;;;;;2217927;66;2002;-27
2023/08/28 04:24:27;;;;;;;;;;;;;;;;;;2218151;66;1649;-27
2023/08/28 04:26:57;;;;;;;;;;;;;;;;;;2215478;59;2156;-27
2023/08/28 04:29:27;;;;;;;;;;;;;;;;;;2218308;58;2437;-27
2023/08/28 04:31:57;;;;;;;;;;;;;;;;;;2219390;58;1769;-27
2023/08/28 04:34:28;;;;;;;;;;;;;;;;;;2217853;66;1893;-26
2023/08/28 04:36:58;;;;;;;;;;;;;;;;;;2213730;58;2593;-27
2023/08/28 04:39:28;;;;;;;;;;;;;;;;;;2218839;66;2101;-26
2023/08/28 04:41:58;;;;;;;;;;;;;;;;;;2217623;66;1789;-27
2023/08/28 04:44:29;;;;;;;;;;;;;;;;;;2218210;58;1752;-27
2023/08/28 04:46:59;;;;;;;;;;;;;;;;;;2217769;58;2001;-27
2023/08/28 04:49:29;;;;;;;;;;;;;;;;;;2214825;66;2456;-26
2023/08/28 04:51:59;;;;;;;;;;;;;;;;;;2215496;58;1990;-27
2023/08/28 04:54:30;;;;;;;;;;;;;;;;;;2214845;66;1760;-27
2023/08/28 04:57:00;;;;;;;;;;;;;;;;;;2218061;59;1976;-27
2023/08/28 04:59:30;;;;;;;;;;;;;;;;;;2217278;66;2056;-27
2023/08/28 05:02:00;;;;;;;;;;;;;;;;;;2219931;58;1838;-27
2023/08/28 05:04:31;;;;;;;;;;;;;;;;;;2218008;66;1788;-26
2023/08/28 05:07:02;;;;;;;;;;;;;;;;;;2218390;66;1790;-27
2023/08/28 05:09:32;;;;;;;;;;;;;;;;;;2217974;58;1937;-27
2023/08/28 05:12:03;;;;;;;;;;;;;;;;;;2217765;58;1753;-26
2023/08/28 05:14:33;;;;;;;;;;;;;;;;;;2218155;66;1717;-27
2023/08/28 05:17:05;;;;;;;;;;;;;;;;;;2217607;66;1846;-27
2023/08/28 05:19:35;;;;;;;;;;;;;;;;;;2218545;66;1757;-26
2023/08/28 05:22:06;;;;;;;;;;;;;;;;;;2218035;66;2045;-27
2023/08/28 05:24:38;;;;;;;;;;;;;;;;;;2217886;66;1697;-27
2023/08/28 05:27:08;;;;;;;;;;;;;;;;;;2214753;66;2353;-27
2023/08/28 05:29:38;;;;;;;;;;;;;;;;;;2217007;58;2162;-27
2023/08/28 05:32:09;;;;;;;;;;;;;;;;;;2217253;58;2279;-27
2023/08/28 05:34:39;;;;;;;;;;;;;;;;;;2218518;66;1846;-26
2023/08/28 05:37:09;;;;;;;;;;;;;;;;;;2217950;58;1565;-26
2023/08/28 05:39:40;;;;;;;;;;;;;;;;;;2218333;66;2690;-26
2023/08/28 05:42:10;;;;;;;;;;;;;;;;;;2215064;66;1998;-26
2023/08/28 05:44:41;;;;;;;;;;;;;;;;;;2214483;58;1585;-26
2023/08/28 05:47:12;;;;;;;;;;;;;;;;;;2217531;58;1778;-28
2023/08/28 05:49:42;;;;;;;;;;;;;;;;;;2217555;58;1999;-28
2023/08/28 05:52:12;;;;;;;;;;;;;;;;;;2217705;58;1913;-28
2023/08/28 05:54:45;;;;;;;;;;;;;;;;;;2217639;66;2587;-27
2023/08/28 05:57:15;;;;;;;;;;;;;;;;;;2213854;59;1696;-27
2023/08/28 05:59:46;;;;;;;;;;;;;;;;;;2218773;58;1761;-27
2023/08/28 06:02:16;;;;;;;;;;;;;;;;;;2211997;66;1816;-28
2023/08/28 06:04:51;;;;;;;;;;;;;;;;;;2218344;66;1975;-27
2023/08/28 06:07:21;;;;;;;;;;;;;;;;;;2217730;66;1999;-27
2023/08/28 06:09:52;;;;;;;;;;;;;;;;;;2218028;66;1990;-27
2023/08/28 06:12:22;;;;;;;;;;;;;;;;;;2217238;58;2137;-27
2023/08/28 06:14:52;;;;;;;;;;;;;;;;;;2218110;66;1773;-27
2023/08/28 06:17:23;;;;;;;;;;;;;;;;;;2217394;66;2121;-27
2023/08/28 06:19:53;;;;;;;;;;;;;;;;;;2218065;66;1823;-27
2023/08/28 06:22:24;;;;;;;;;;;;;;;;;;2214874;66;1919;-27
2023/08/28 06:24:54;;;;;;;;;;;;;;;;;;2218380;66;1913;-28
2023/08/28 06:27:24;;;;;;;;;;;;;;;;;;2218130;58;3134;-28
2023/08/28 06:29:54;;;;;;;;;;;;;;;;;;2216863;58;2185;-28
2023/08/28 06:32:25;;;;;;;;;;;;;;;;;;2217511;58;2357;-28
2023/08/28 06:34:55;;;;;;;;;;;;;;;;;;2217374;66;1760;-28
2023/08/28 06:37:25;;;;;;;;;;;;;;;;;;2217826;66;1842;-27
2023/08/28 06:39:55;;;;;;;;;;;;;;;;;;2218721;66;1766;-28
2023/08/28 06:42:25;;;;;;;;;;;;;;;;;;2220801;59;1770;-27
2023/08/28 06:44:56;;;;;;;;;;;;;;;;;;2219120;58;2219;-27
2023/08/28 06:47:26;;;;;;;;;;;;;;;;;;2217981;66;1882;-27
2023/08/28 06:49:56;;;;;;;;;;;;;;;;;;2218394;58;2766;-27
2023/08/28 06:52:27;;;;;;;;;;;;;;;;;;2218793;58;1858;-27
2023/08/28 06:54:57;;;;;;;;;;;;;;;;;;2218554;66;2371;-27
2023/08/28 06:57:27;;;;;;;;;;;;;;;;;;2218416;58;1740;-27
2023/08/28 06:59:57;;;;;;;;;;;;;;;;;;2217768;58;1760;-27
2023/08/28 07:02:30;;;;;;;;;;;;;;;;;;2218072;66;2751;-27
2023/08/28 07:05:00;;;;;;;;;;;;;;;;;;2215924;66;1954;-27
2023/08/28 07:07:33;;;;;;;;;;;;;;;;;;2218214;66;2413;-27
2023/08/28 07:10:04;;;;;;;;;;;;;;;;;;2218419;66;1942;-27
2023/08/28 07:12:34;;;;;;;;;;;;;;;;;;2219506;66;2400;-27
2023/08/28 07:15:24;;;;;;;;;;;;;;;;;;2220873;66;3149;-27
2023/08/28 07:17:55;;;;;;;;;;;;;;;;;;2217991;66;1869;-27
2023/08/28 07:20:25;;;;;;;;;;;;;;;;;;2218033;66;1760;-27
2023/08/28 07:22:55;;;;;;;;;;;;;;;;;;2219193;66;2139;-27
2023/08/28 07:25:27;;;;;;;;;;;;;;;;;;2214957;66;2175;-27
2023/08/28 07:27:57;;;;;;;;;;;;;;;;;;2217922;58;2097;-27
2023/08/28 07:30:28;;;;;;;;;;;;;;;;;;2217302;66;2554;-27
2023/08/28 07:32:58;;;;;;;;;;;;;;;;;;2214288;59;2589;-27
2023/08/28 07:35:34;;;;;;;;;;;;;;;;;;2218697;66;2350;-27
2023/08/28 07:38:05;;;;;;;;;;;;;;;;;;2217903;58;2228;-27
2023/08/28 07:40:35;;;;;;;;;;;;;;;;;;2214454;66;1851;-27
2023/08/28 07:43:06;;;;;;;;;;;;;;;;;;2218181;66;2389;-27
2023/08/28 07:45:36;;;;;;;;;;;;;;;;;;2218096;58;2444;-27
2023/08/28 07:48:06;;;;;;;;;;;;;;;;;;2212450;59;1812;-27
2023/08/28 07:50:37;;;;;;;;;;;;;;;;;;2217837;58;1931;-27
2023/08/28 07:53:08;;;;;;;;;;;;;;;;;;2218211;58;1803;-27
2023/08/28 07:55:38;;;;;;;;;;;;;;;;;;2217727;59;2601;-27
2023/08/28 07:58:09;;;;;;;;;;;;;;;;;;2218012;66;2870;-26
2023/08/28 08:00:40;;;;;;;;;;;;;;;;;;2218309;58;1786;-27
2023/08/28 08:03:10;;;;;;;;;;;;;;;;;;2218491;66;1912;-27
2023/08/28 08:05:41;;;;;;;;;;;;;;;;;;2218295;66;1964;-28
2023/08/28 08:08:11;;;;;;;;;;;;;;;;;;2217682;66;2513;-27
2023/08/28 08:10:42;;;;;;;;;;;;;;;;;;2218255;66;1936;-27
2023/08/28 08:13:12;;;;;;;;;;;;;;;;;;2219053;58;2503;-27
2023/08/28 08:15:42;;;;;;;;;;;;;;;;;;2218098;66;1821;-27
2023/08/28 08:18:12;;;;;;;;;;;;;;;;;;2218128;66;3019;-27
2023/08/28 08:20:43;;;;;;;;;;;;;;;;;;2214533;66;1789;-27
2023/08/28 08:23:14;;;;;;;;;;;;;;;;;;2218292;58;2244;-27
2023/08/28 08:25:44;;;;;;;;;;;;;;;;;;2218145;66;2242;-27
2023/08/28 08:28:17;;;;;;;;;;;;;;;;;;2214949;59;1759;-27
2023/08/28 08:30:47;;;;;;;;;;;;;;;;;;2218192;58;1991;-27
2023/08/28 08:33:18;;;;;;;;;;;;;;;;;;2216752;58;2649;-27
2023/08/28 08:35:48;;;;;;;;;;;;;;;;;;2214426;66;1884;-27
2023/08/28 08:38:19;;;;;;;;;;;;;;;;;;2217769;66;1962;-27
2023/08/28 08:40:51;;;;;;;;;;;;;;;;;;2218716;66;1812;-27
2023/08/28 08:43:21;;;;;;;;;;;;;;;;;;2215171;66;1830;-27
2023/08/28 08:45:55;;;;;;;;;;;;;;;;;;2218366;58;2118;-27
2023/08/28 08:48:26;;;;;;;;;;;;;;;;;;2218867;58;2367;-27
2023/08/28 08:51:01;;;;;;;;;;;;;;;;;;2218869;58;3003;-27
2023/08/28 08:53:48;;;;;;;;;;;;;;;;;;2219162;58;2116;-27
2023/08/28 08:56:20;;;;;;;;;;;;;;;;;;2217692;58;1998;-27
2023/08/28 08:58:51;;;;;;;;;;;;;;;;;;2218034;59;2560;-27
2023/08/28 09:01:22;;;;;;;;;;;;;;;;;;2215512;59;1745;-27
2023/08/28 09:03:53;;;;;;;;;;;;;;;;;;2218164;66;1858;-27
2023/08/28 09:06:25;;;;;;;;;;;;;;;;;;2217848;66;1839;-27
2023/08/28 09:08:55;;;;;;;;;;;;;;;;;;2217371;58;2526;-27
2023/08/28 09:11:25;;;;;;;;;;;;;;;;;;2218247;58;2623;-27
2023/08/28 09:13:56;;;;;;;;;;;;;;;;;;2218235;66;1725;-27
2023/08/28 09:16:26;;;;;;;;;;;;;;;;;;2218049;66;2851;-27
2023/08/28 09:18:56;;;;;;;;;;;;;;;;;;2218017;66;1666;-27
2023/08/28 09:21:33;;;;;;;;;;;;;;;;;;2220264;66;2460;-27
2023/08/28 09:24:12;;;;;;;;;;;;;;;;;;2220730;66;1927;-27
2023/08/28 09:26:49;;;;;;;;;;;;;;;;;;2218944;58;1897;-27
2023/08/28 09:29:21;;;;;;;;;;;;;;;;;;2215380;59;2006;-27
2023/08/28 09:31:51;;;;;;;;;;;;;;;;;;2217692;59;2868;-27
2023/08/28 09:34:24;;;;;;;;;;;;;;;;;;2216923;58;2956;-27
2023/08/28 09:37:00;;;;;;;;;;;;;;;;;;2217744;58;1933;-28
2023/08/28 09:39:32;;;;;;;;;;;;;;;;;;2217678;66;2540;-27
2023/08/28 09:42:04;;;;;;;;;;;;;;;;;;2218071;66;2073;-27
2023/08/28 09:44:36;;;;;;;;;;;;;;;;;;2217914;58;1745;-27
2023/08/28 09:47:06;;;;;;;;;;;;;;;;;;2217622;66;2842;-27
2023/08/28 09:49:43;;;;;;;;;;;;;;;;;;2217614;66;2015;-27
2023/08/28 09:52:13;;;;;;;;;;;;;;;;;;2217929;58;2630;-27
2023/08/28 09:54:44;;;;;;;;;;;;;;;;;;2214441;66;1806;-27
2023/08/28 09:57:17;;;;;;;;;;;;;;;;;;2217541;58;1999;-28
2023/08/28 09:59:47;;;;;;;;;;;;;;;;;;2217691;58;1762;-27
2023/08/28 10:02:20;;;;;;;;;;;;;;;;;;2218095;66;2628;-27
2023/08/28 10:04:52;;;;;;;;;;;;;;;;;;2217877;66;1734;-27
2023/08/28 10:07:24;;;;;;;;;;;;;;;;;;2217641;66;1978;-27
2023/08/28 10:09:58;;;;;;;;;;;;;;;;;;2217821;66;2242;-27
2023/08/28 10:12:29;;;;;;;;;;;;;;;;;;2215227;59;1883;-27
2023/08/28 10:15:04;;;;;;;;;;;;;;;;;;2214645;66;1880;-27
2023/08/28 10:17:34;;;;;;;;;;;;;;;;;;2218359;66;2579;-27
2023/08/28 10:20:09;;;;;;;;;;;;;;;;;;2218102;66;2220;-27
2023/08/28 10:22:41;;;;;;;;;;;;;;;;;;2218822;66;1798;-27
2023/08/28 10:25:12;;;;;;;;;;;;;;;;;;2219016;66;1759;-27
2023/08/28 10:27:43;;;;;;;;;;;;;;;;;;2219148;58;2623;-27
2023/08/28 10:30:14;;;;;;;;;;;;;;;;;;2218917;66;2565;-27
2023/08/28 10:32:44;;;;;;;;;;;;;;;;;;2218888;58;1821;-27
2023/08/28 10:35:16;;;;;;;;;;;;;;;;;;2217139;66;2539;-27
2023/08/28 10:37:47;;;;;;;;;;;;;;;;;;2215202;58;2141;-26
2023/08/28 10:40:18;;;;;;;;;;;;;;;;;;2218700;66;1627;-26
2023/08/28 10:42:49;;;;;;;;;;;;;;;;;;2215729;58;2554;-26
2023/08/28 10:45:19;;;;;;;;;;;;;;;;;;2218712;58;1750;-26
2023/08/28 10:47:50;;;;;;;;;;;;;;;;;;2218866;66;1868;-26
2023/08/28 10:50:20;;;;;;;;;;;;;;;;;;2214422;66;2054;-26
2023/08/28 10:52:57;;;;;;;;;;;;;;;;;;2219192;58;1814;-26
2023/08/28 10:55:27;;;;;;;;;;;;;;;;;;2220776;58;2422;-26
2023/08/28 10:58:04;;;;;;;;;;;;;;;;;;2218928;66;1913;-26
2023/08/28 11:00:34;;;;;;;;;;;;;;;;;;2218498;58;1451;-26
2023/08/28 11:03:14;;;;;;;;;;;;;;;;;;2218178;66;2493;-26
2023/08/28 11:05:44;;;;;;;;;;;;;;;;;;2219246;66;2258;-26
2023/08/28 11:08:15;;;;;;;;;;;;;;;;;;2218576;66;2436;-26
2023/08/28 11:11:05;;;;;;;;;;;;;;;;;;2214839;66;2265;-26
2023/08/28 11:13:35;;;;;;;;;;;;;;;;;;2219323;58;2064;-27
2023/08/28 11:16:06;;;;;;;;;;;;;;;;;;2217968;66;1681;-26
2023/08/28 11:18:39;;;;;;;;;;;;;;;;;;2218503;66;2489;-26
2023/08/28 11:21:10;;;;;;;;;;;;;;;;;;2218372;66;1954;-26
2023/08/28 11:23:42;;;;;;;;;;;;;;;;;;2218394;66;1764;-26
2023/08/28 11:26:15;;;;;;;;;;;;;;;;;;2220865;58;2450;-26
2023/08/28 11:28:49;;;;;;;;;;;;;;;;;;2219656;66;1620;-26
2023/08/28 11:31:19;;;;;;;;;;;;;;;;;;2218362;58;2665;-26
2023/08/28 11:33:50;;;;;;;;;;;;;;;;;;2218232;66;1634;-26
2023/08/28 11:36:21;;;;;;;;;;;;;;;;;;2216568;66;3115;-25
2023/08/28 11:38:53;;;;;;;;;;;;;;;;;;2218101;66;1872;-25
2023/08/28 11:41:23;;;;;;;;;;;;;;;;;;2217867;58;2745;-26
2023/08/28 11:43:53;;;;;;;;;;;;;;;;;;2215016;66;2605;-25
2023/08/28 11:49:05;;;;;;;;;;;;;;;;;;2214380;59;1780;-20
2023/08/28 11:51:36;;;;;;;;;;;;;;;;;;2217169;58;1936;-20
2023/08/28 11:54:06;;;;;;;;;;;;;;;;;;2217463;58;1776;-20
2023/08/28 11:56:38;;;;;;;;;;;;;;;;;;2213959;59;1638;-20
2023/08/28 11:59:08;;;;;;;;;;;;;;;;;;2217812;58;1808;-22
2023/08/28 12:01:38;;;;;;;;;;;;;;;;;;2218376;58;1293;-20
2023/08/28 12:04:09;;;;;;;;;;;;;;;;;;2217357;66;1257;-20
2023/08/28 12:06:39;;;;;;;;;;;;;;;;;;2214124;59;1533;-20
2023/08/28 12:09:12;;;;;;;;;;;;;;;;;;2212236;66;2131;-20
2023/08/28 12:11:43;;;;;;;;;;;;;;;;;;2218822;58;1937;-20
2023/08/28 12:14:17;;;;;;;;;;;;;;;;;;2219069;66;1671;-20
2023/08/28 12:16:48;;;;;;;;;;;;;;;;;;2218493;66;1407;-19
2023/08/28 12:19:21;;;;;;;;;;;;;;;;;;2214929;66;1665;-20
2023/08/28 12:21:52;;;;;;;;;;;;;;;;;;2215953;66;2824;-22
2023/08/28 12:24:23;;;;;;;;;;;;;;;;;;2218602;66;1891;-22
2023/08/28 12:26:55;;;;;;;;;;;;;;;;;;2219203;66;1750;-22
2023/08/28 12:29:29;;;;;;;;;;;;;;;;;;2218447;58;1657;-22
2023/08/28 12:31:59;;;;;;;;;;;;;;;;;;2216224;58;1947;-23
2023/08/28 12:34:30;;;;;;;;;;;;;;;;;;2217931;66;1620;-22
2023/08/28 12:37:04;;;;;;;;;;;;;;;;;;2216719;58;2365;-22
2023/08/28 12:39:35;;;;;;;;;;;;;;;;;;2218067;59;1735;-22
2023/08/28 12:42:09;;;;;;;;;;;;;;;;;;2214606;66;1810;-22
2023/08/28 12:44:40;;;;;;;;;;;;;;;;;;2217396;59;3050;-22
2023/08/28 12:47:11;;;;;;;;;;;;;;;;;;2216866;66;1848;-22
2023/08/28 12:49:42;;;;;;;;;;;;;;;;;;2214297;59;2494;-22
2023/08/28 12:52:12;;;;;;;;;;;;;;;;;;2217331;58;1757;-22
2023/08/28 12:54:42;;;;;;;;;;;;;;;;;;2217633;66;1644;-22
2023/08/28 12:57:12;;;;;;;;;;;;;;;;;;2213808;59;1792;-22
2023/08/28 12:59:42;;;;;;;;;;;;;;;;;;2217159;58;1382;-22
2023/08/28 13:02:13;;;;;;;;;;;;;;;;;;2217961;66;1634;-22
2023/08/28 13:04:43;;;;;;;;;;;;;;;;;;2218327;66;1679;-22
2023/08/28 13:07:16;;;;;;;;;;;;;;;;;;2217634;66;1421;-22
2023/08/28 13:09:47;;;;;;;;;;;;;;;;;;2215555;66;1951;-22
2023/08/28 13:12:19;;;;;;;;;;;;;;;;;;2214684;59;1635;-23
2023/08/28 13:14:49;;;;;;;;;;;;;;;;;;2218445;66;1226;-22
2023/08/28 13:17:19;;;;;;;;;;;;;;;;;;2218211;66;1333;-22
2023/08/28 13:19:49;;;;;;;;;;;;;;;;;;2215899;66;1412;-23
2023/08/28 13:22:20;;;;;;;;;;;;;;;;;;2215715;66;1317;-22
2023/08/28 13:24:50;;;;;;;;;;;;;;;;;;2218531;66;1759;-22
2023/08/28 13:27:20;;;;;;;;;;;;;;;;;;2218168;66;1348;-22
2023/08/28 13:29:50;;;;;;;;;;;;;;;;;;2219167;58;1984;-22
2023/08/28 13:32:21;;;;;;;;;;;;;;;;;;2212680;59;1309;-22
2023/08/28 13:34:51;;;;;;;;;;;;;;;;;;2217506;66;1754;-23
2023/08/28 13:37:22;;;;;;;;;;;;;;;;;;2217300;58;2587;-22
2023/08/28 13:39:52;;;;;;;;;;;;;;;;;;2215996;66;2777;-24
2023/08/28 13:42:22;;;;;;;;;;;;;;;;;;2214760;59;2481;-23
2023/08/28 13:44:52;;;;;;;;;;;;;;;;;;2218034;58;2282;-23
2023/08/28 13:47:23;;;;;;;;;;;;;;;;;;2218300;58;2351;-23
2023/08/28 13:49:53;;;;;;;;;;;;;;;;;;2218248;66;2208;-23
2023/08/28 13:52:23;;;;;;;;;;;;;;;;;;2218669;58;2303;-22
2023/08/28 13:54:53;;;;;;;;;;;;;;;;;;2215461;66;2718;-23
2023/08/28 13:57:24;;;;;;;;;;;;;;;;;;2219008;66;2337;-22
2023/08/28 13:59:54;;;;;;;;;;;;;;;;;;2219545;58;1735;-23
2023/08/28 14:02:25;;;;;;;;;;;;;;;;;;2217965;66;1777;-22
2023/08/28 14:04:55;;;;;;;;;;;;;;;;;;2218617;66;2140;-22
2023/08/28 14:07:26;;;;;;;;;;;;;;;;;;2218820;59;1480;-22
2023/08/28 14:09:57;;;;;;;;;;;;;;;;;;2216102;63;1955;-22
2023/08/28 14:12:27;;;;;;;;;;;;;;;;;;2219199;58;1849;-22
2023/08/28 14:14:59;;;;;;;;;;;;;;;;;;2218719;59;1767;-22
2023/08/28 14:17:29;;;;;;;;;;;;;;;;;;2218967;66;1638;-22
2023/08/28 14:20:00;;;;;;;;;;;;;;;;;;2219028;66;1756;-22
2023/08/28 14:22:30;;;;;;;;;;;;;;;;;;2219043;66;1367;-22
2023/08/28 14:25:00;;;;;;;;;;;;;;;;;;2219062;58;1817;-22
2023/08/28 14:27:31;;;;;;;;;;;;;;;;;;2215017;58;1862;-22
2023/08/28 14:30:03;;;;;;;;;;;;;;;;;;2218290;66;1918;-22
2023/08/28 14:32:33;;;;;;;;;;;;;;;;;;2218624;58;1658;-22
2023/08/28 14:35:03;;;;;;;;;;;;;;;;;;2218863;66;1972;-22
2023/08/28 14:37:33;;;;;;;;;;;;;;;;;;2214897;59;2671;-22
2023/08/28 14:40:04;;;;;;;;;;;;;;;;;;2218223;59;2374;-22
2023/08/28 14:42:34;;;;;;;;;;;;;;;;;;2217973;66;1860;-22
2023/08/28 14:45:05;;;;;;;;;;;;;;;;;;2218529;58;2221;-22
2023/08/28 14:47:35;;;;;;;;;;;;;;;;;;2217304;58;2675;-22
2023/08/28 14:50:06;;;;;;;;;;;;;;;;;;2217703;58;2243;-22
2023/08/28 14:52:36;;;;;;;;;;;;;;;;;;2214689;59;2045;-22
2023/08/28 14:55:07;;;;;;;;;;;;;;;;;;2218573;66;2063;-22
2023/08/28 14:57:37;;;;;;;;;;;;;;;;;;2218228;58;2901;-22
2023/08/28 15:00:08;;;;;;;;;;;;;;;;;;2218088;58;1600;-22
2023/08/28 15:02:41;;;;;;;;;;;;;;;;;;2217673;66;1782;-22
2023/08/28 15:05:11;;;;;;;;;;;;;;;;;;2215278;66;1958;-22
2023/08/28 15:07:42;;;;;;;;;;;;;;;;;;2218006;66;1267;-22
2023/08/28 15:10:12;;;;;;;;;;;;;;;;;;2218770;66;2611;-22
2023/08/28 15:12:42;;;;;;;;;;;;;;;;;;2214888;59;1420;-22
2023/08/28 15:15:12;;;;;;;;;;;;;;;;;;2214712;66;1826;-22
2023/08/28 15:17:42;;;;;;;;;;;;;;;;;;2217744;66;1670;-22
2023/08/28 15:20:13;;;;;;;;;;;;;;;;;;2218137;66;1628;-22
2023/08/28 15:22:43;;;;;;;;;;;;;;;;;;2215676;66;1665;-22
2023/08/28 15:25:13;;;;;;;;;;;;;;;;;;2218072;66;1860;-23
2023/08/28 15:27:44;;;;;;;;;;;;;;;;;;2219052;58;1309;-23
2023/08/28 15:30:14;;;;;;;;;;;;;;;;;;2214752;66;1986;-23
2023/08/28 15:32:44;;;;;;;;;;;;;;;;;;2218661;58;1621;-23
2023/08/28 15:35:15;;;;;;;;;;;;;;;;;;2215180;66;1270;-22
2023/08/28 15:37:45;;;;;;;;;;;;;;;;;;2215849;59;1737;-22
2023/08/28 15:40:15;;;;;;;;;;;;;;;;;;2216796;59;2840;-22
2023/08/28 15:42:48;;;;;;;;;;;;;;;;;;2214307;66;1716;-23
2023/08/28 15:45:19;;;;;;;;;;;;;;;;;;2218473;58;2458;-22
2023/08/28 15:47:50;;;;;;;;;;;;;;;;;;2218483;58;2173;-23
2023/08/28 15:50:20;;;;;;;;;;;;;;;;;;2214866;66;2967;-22
2023/08/28 15:52:51;;;;;;;;;;;;;;;;;;2218271;58;2345;-23
2023/08/28 15:55:21;;;;;;;;;;;;;;;;;;2216537;58;1953;-22
2023/08/28 15:57:51;;;;;;;;;;;;;;;;;;2218839;66;2810;-22
2023/08/28 16:00:21;;;;;;;;;;;;;;;;;;2218565;58;1957;-26
2023/08/28 16:02:55;;;;;;;;;;;;;;;;;;2219418;66;2375;-22
2023/08/28 16:05:27;;;;;;;;;;;;;;;;;;2218109;59;2239;-22
2023/08/28 16:07:57;;;;;;;;;;;;;;;;;;2215435;66;1949;-22
2023/08/28 16:10:27;;;;;;;;;;;;;;;;;;2218434;66;1925;-22
2023/08/28 16:12:57;;;;;;;;;;;;;;;;;;2211980;66;1969;-23
2023/08/28 16:15:28;;;;;;;;;;;;;;;;;;2218396;59;1757;-22
2023/08/28 16:17:58;;;;;;;;;;;;;;;;;;2218503;66;2282;-22
2023/08/28 16:20:30;;;;;;;;;;;;;;;;;;2217690;58;1879;-22
2023/08/28 16:23:00;;;;;;;;;;;;;;;;;;2217541;66;1742;-22
2023/08/28 16:25:31;;;;;;;;;;;;;;;;;;2217697;59;1835;-22
2023/08/28 16:28:01;;;;;;;;;;;;;;;;;;2217740;58;1920;-23
2023/08/28 16:30:31;;;;;;;;;;;;;;;;;;2217567;58;1977;-23
2023/08/28 16:33:02;;;;;;;;;;;;;;;;;;2217593;58;1790;-23
2023/08/28 16:35:32;;;;;;;;;;;;;;;;;;2217030;66;2791;-23
2023/08/28 16:38:02;;;;;;;;;;;;;;;;;;2217367;58;1716;-23
2023/08/28 16:40:33;;;;;;;;;;;;;;;;;;2216403;59;2969;-23
2023/08/28 16:43:03;;;;;;;;;;;;;;;;;;2216862;59;3474;-23
2023/08/28 16:45:33;;;;;;;;;;;;;;;;;;2214066;59;1883;-23
2023/08/28 16:48:04;;;;;;;;;;;;;;;;;;2214392;59;1704;-23
2023/08/28 16:50:34;;;;;;;;;;;;;;;;;;2217707;66;2611;-24
2023/08/28 16:53:04;;;;;;;;;;;;;;;;;;2217935;58;1768;-24
2023/08/28 16:55:38;;;;;;;;;;;;;;;;;;2217129;58;2470;-24
2023/08/28 16:58:09;;;;;;;;;;;;;;;;;;2217270;66;1851;-24
2023/08/28 17:00:39;;;;;;;;;;;;;;;;;;2214481;59;2789;-23
2023/08/28 17:03:09;;;;;;;;;;;;;;;;;;2216582;66;2189;-21
2023/08/28 17:05:40;;;;;;;;;;;;;;;;;;2215294;59;2200;-21
2023/08/28 17:08:10;;;;;;;;;;;;;;;;;;2217582;66;2570;-21
2023/08/28 17:10:40;;;;;;;;;;;;;;;;;;2218466;66;1940;-20
2023/08/28 17:13:10;;;;;;;;;;;;;;;;;;2217397;59;2039;-20
2023/08/28 17:15:41;;;;;;;;;;;;;;;;;;2215965;66;1683;-22
2023/08/28 17:18:14;;;;;;;;;;;;;;;;;;2218137;59;1769;-20
2023/08/28 17:20:44;;;;;;;;;;;;;;;;;;2218094;66;1558;-20
2023/08/28 17:23:16;;;;;;;;;;;;;;;;;;2218909;66;1390;-20
2023/08/28 17:25:47;;;;;;;;;;;;;;;;;;2218591;66;1774;-20
2023/08/28 17:28:17;;;;;;;;;;;;;;;;;;2214937;59;1639;-22
2023/08/28 17:30:47;;;;;;;;;;;;;;;;;;2211344;66;2107;-20
2023/08/28 17:33:17;;;;;;;;;;;;;;;;;;2214692;59;1650;-20